createdAt,value
2023-04-02T00:00:20.545Z,245.48
2023-04-02T00:01:20.579Z,245.81
2023-04-02T00:02:20.663Z,245.26
2023-04-02T00:03:20.783Z,245.68
2023-04-02T00:04:20.617Z,245.75
2023-04-02T00:05:20.643Z,245.95
2023-04-02T00:06:20.617Z,245.93
2023-04-02T00:07:20.637Z,246.23
2023-04-02T00:08:20.604Z,245.96
2023-04-02T00:09:20.601Z,244.97
2023-04-02T00:10:20.595Z,246.09
2023-04-02T00:11:20.597Z,245.68
2023-04-02T00:12:20.612Z,245.48
2023-04-02T00:13:20.606Z,245.53
2023-04-02T00:14:20.571Z,245.64
2023-04-02T00:15:20.577Z,245.87
2023-04-02T00:16:20.581Z,245.86
2023-04-02T00:17:20.581Z,246.20
2023-04-02T00:18:20.622Z,245.66
2023-04-02T00:19:20.578Z,245.91
2023-04-02T00:20:20.574Z,245.99
2023-04-02T00:21:20.580Z,246.02
2023-04-02T00:22:20.557Z,246.34
2023-04-02T00:23:20.554Z,245.65
2023-04-02T00:24:20.560Z,245.74
2023-04-02T00:25:20.554Z,246.01
2023-04-02T00:26:20.531Z,245.70
2023-04-02T00:27:20.539Z,246.49
2023-04-02T00:28:20.525Z,245.98
2023-04-02T00:29:20.534Z,245.97
2023-04-02T00:30:20.539Z,245.83
2023-04-02T00:31:20.532Z,246.91
2023-04-02T00:32:20.576Z,245.27
2023-04-02T00:33:20.535Z,244.99
2023-04-02T00:34:20.534Z,245.42
2023-04-02T00:35:20.539Z,246.48
2023-04-02T00:36:20.558Z,245.15
2023-04-02T00:37:20.534Z,245.03
2023-04-02T00:38:20.525Z,245.35
2023-04-02T00:39:20.529Z,245.71
2023-04-02T00:40:20.526Z,245.15
2023-04-02T00:41:20.524Z,244.73
2023-04-02T00:42:20.533Z,244.92
2023-04-02T00:43:20.527Z,244.91
2023-04-02T00:44:20.520Z,244.69
2023-04-02T00:45:20.518Z,244.96
2023-04-02T00:46:20.599Z,244.97
2023-04-02T00:47:20.558Z,244.66
2023-04-02T00:48:21.159Z,244.98
2023-04-02T00:49:20.640Z,244.24
2023-04-02T00:50:20.644Z,244.58
2023-04-02T00:51:20.717Z,244.31
2023-04-02T00:52:20.698Z,244.17
2023-04-02T00:53:20.735Z,243.94
2023-04-02T00:54:20.775Z,244.69
2023-04-02T00:55:20.809Z,244.44
2023-04-02T00:56:20.825Z,244.63
2023-04-02T00:57:20.905Z,244.55
2023-04-02T00:58:20.892Z,244.73
2023-04-02T00:59:20.916Z,244.81
2023-04-02T01:00:20.890Z,244.99
2023-04-02T01:01:20.916Z,244.35
2023-04-02T01:02:20.903Z,244.89
2023-04-02T01:03:20.972Z,244.55
2023-04-02T01:04:21.085Z,244.83
2023-04-02T01:05:20.886Z,244.89
2023-04-02T01:06:20.877Z,245.06
2023-04-02T01:07:20.877Z,245.05
2023-04-02T01:08:20.889Z,245.37
2023-04-02T01:09:20.905Z,244.86
2023-04-02T01:10:20.872Z,245.10
2023-04-02T01:11:20.870Z,245.22
2023-04-02T01:12:20.875Z,244.29
2023-04-02T01:13:20.874Z,244.84
2023-04-02T01:14:20.867Z,244.98
2023-04-02T01:15:20.862Z,244.91
2023-04-02T01:16:20.964Z,244.30
2023-04-02T01:17:20.841Z,245.15
2023-04-02T01:18:20.842Z,244.68
2023-04-02T01:19:20.836Z,244.51
2023-04-02T01:20:20.821Z,244.24
2023-04-02T01:21:20.817Z,244.35
2023-04-02T01:22:20.810Z,244.43
2023-04-02T01:23:20.825Z,244.65
2023-04-02T01:24:20.818Z,244.49
2023-04-02T01:25:20.822Z,244.45
2023-04-02T01:26:20.802Z,245.34
2023-04-02T01:27:20.808Z,244.34
2023-04-02T01:28:20.797Z,244.49
2023-04-02T01:29:20.788Z,244.62
2023-04-02T01:30:20.794Z,244.82
2023-04-02T01:31:20.817Z,244.57
2023-04-02T01:32:20.780Z,244.17
2023-04-02T01:33:20.802Z,244.53
2023-04-02T01:34:20.807Z,244.40
2023-04-02T01:35:20.770Z,244.33
2023-04-02T01:36:20.801Z,244.32
2023-04-02T01:37:20.770Z,244.35
2023-04-02T01:38:20.754Z,243.20
2023-04-02T01:39:20.776Z,244.03
2023-04-02T01:40:20.767Z,243.92
2023-04-02T01:41:20.754Z,243.60
2023-04-02T01:42:20.745Z,244.13
2023-04-02T01:43:20.745Z,243.44
2023-04-02T01:44:20.752Z,243.63
2023-04-02T01:45:20.748Z,243.63
2023-04-02T01:46:20.749Z,243.12
2023-04-02T01:47:20.732Z,243.35
2023-04-02T01:48:20.725Z,243.25
2023-04-02T01:49:20.738Z,243.73
2023-04-02T01:50:20.766Z,242.49
2023-04-02T01:51:20.788Z,242.54
2023-04-02T01:52:20.808Z,243.08
2023-04-02T01:53:20.858Z,243.23
2023-04-02T01:54:20.881Z,243.52
2023-04-02T01:55:20.912Z,242.83
2023-04-02T01:56:20.946Z,242.47
2023-04-02T01:57:21.013Z,242.88
2023-04-02T01:58:21.022Z,242.00
2023-04-02T01:59:21.041Z,242.80
2023-04-02T02:00:21.105Z,242.71
2023-04-02T02:01:21.193Z,243.24
2023-04-02T02:02:21.174Z,241.84
2023-04-02T02:03:21.182Z,242.28
2023-04-02T02:04:21.190Z,242.76
2023-04-02T02:05:21.235Z,242.10
2023-04-02T02:06:21.264Z,243.17
2023-04-02T02:07:21.297Z,242.19
2023-04-02T02:08:21.337Z,242.03
2023-04-02T02:09:21.307Z,242.12
2023-04-02T02:10:21.308Z,242.25
2023-04-02T02:11:21.300Z,242.44
2023-04-02T02:12:21.303Z,242.22
2023-04-02T02:13:21.305Z,242.32
2023-04-02T02:14:21.312Z,242.89
2023-04-02T02:15:21.315Z,242.55
2023-04-02T02:16:21.335Z,242.22
2023-04-02T02:17:21.349Z,241.87
2023-04-02T02:18:21.293Z,242.21
2023-04-02T02:19:21.297Z,242.00
2023-04-02T02:20:21.320Z,242.07
2023-04-02T02:21:21.293Z,242.18
2023-04-02T02:22:21.296Z,242.25
2023-04-02T02:23:21.309Z,242.52
2023-04-02T02:24:21.297Z,242.77
2023-04-02T02:25:21.320Z,242.75
2023-04-02T02:26:21.311Z,243.20
2023-04-02T02:27:21.320Z,242.25
2023-04-02T02:28:21.315Z,242.41
2023-04-02T02:29:21.330Z,241.72
2023-04-02T02:30:21.345Z,241.58
2023-04-02T02:31:21.351Z,241.47
2023-04-02T02:32:21.364Z,241.08
2023-04-02T02:33:21.349Z,241.46
2023-04-02T02:34:21.344Z,241.04
2023-04-02T02:35:21.352Z,242.00
2023-04-02T02:36:21.388Z,241.38
2023-04-02T02:37:21.364Z,241.49
2023-04-02T02:38:21.358Z,241.64
2023-04-02T02:39:21.362Z,241.73
2023-04-02T02:40:21.369Z,241.23
2023-04-02T02:41:21.362Z,241.90
2023-04-02T02:42:21.361Z,241.15
2023-04-02T02:43:21.389Z,241.36
2023-04-02T02:44:21.379Z,241.44
2023-04-02T02:45:21.385Z,241.26
2023-04-02T02:46:21.462Z,240.97
2023-04-02T02:47:21.390Z,240.79
2023-04-02T02:48:21.391Z,240.41
2023-04-02T02:49:21.384Z,241.46
2023-04-02T02:50:21.398Z,240.64
2023-04-02T02:51:21.388Z,240.41
2023-04-02T02:52:21.412Z,240.62
2023-04-02T02:53:21.405Z,241.20
2023-04-02T02:54:21.410Z,240.95
2023-04-02T02:55:21.418Z,241.08
2023-04-02T02:56:21.417Z,240.71
2023-04-02T02:57:21.458Z,240.80
2023-04-02T02:58:21.430Z,235.28
2023-04-02T02:59:21.459Z,230.81
2023-04-02T03:00:21.455Z,228.22
2023-04-02T03:01:21.487Z,224.42
2023-04-02T03:02:21.553Z,219.87
2023-04-02T03:03:21.644Z,216.35
2023-04-02T03:04:21.527Z,213.80
2023-04-02T03:05:21.492Z,210.09
2023-04-02T03:06:21.499Z,206.55
2023-04-02T03:07:21.500Z,203.69
2023-04-02T03:08:21.513Z,200.29
2023-04-02T03:09:21.560Z,198.13
2023-04-02T03:10:21.549Z,192.84
2023-04-02T03:11:21.566Z,189.20
2023-04-02T03:12:21.595Z,184.87
2023-04-02T03:13:21.577Z,181.05
2023-04-02T03:14:21.583Z,178.26
2023-04-02T03:15:21.607Z,176.10
2023-04-02T03:16:21.651Z,171.98
2023-04-02T03:17:21.656Z,168.70
2023-04-02T03:18:21.691Z,164.39
2023-04-02T03:19:21.730Z,161.37
2023-04-02T03:20:21.764Z,157.65
2023-04-02T03:21:21.803Z,154.58
2023-04-02T03:22:21.833Z,151.35
2023-04-02T03:23:21.885Z,147.46
2023-04-02T03:24:21.933Z,144.04
2023-04-02T03:25:21.989Z,139.64
2023-04-02T03:26:21.989Z,139.42
2023-04-02T03:27:22.050Z,134.95
2023-04-02T03:28:22.084Z,132.98
2023-04-02T03:29:22.120Z,128.79
2023-04-02T03:30:22.166Z,123.66
2023-04-02T03:31:22.225Z,121.52
2023-04-02T03:32:22.253Z,118.32
2023-04-02T03:33:22.268Z,113.31
2023-04-02T03:34:22.331Z,109.38
2023-04-02T03:35:22.355Z,108.43
2023-04-02T03:36:22.445Z,107.24
2023-04-02T03:37:22.445Z,103.56
2023-04-02T03:38:22.476Z,101.71
2023-04-02T03:39:22.532Z,101.51
2023-04-02T03:40:22.581Z,99.45
2023-04-02T03:41:22.615Z,97.88
2023-04-02T03:42:22.654Z,94.86
2023-04-02T03:43:22.709Z,94.06
2023-04-02T03:44:22.733Z,93.04
2023-04-02T03:45:22.783Z,88.69
2023-04-02T03:46:22.886Z,88.93
2023-04-02T03:47:22.913Z,87.40
2023-04-02T03:48:22.939Z,85.72
2023-04-02T03:49:22.999Z,84.42
2023-04-02T03:50:23.050Z,83.96
2023-04-02T03:51:23.113Z,80.61
2023-04-02T03:52:23.175Z,77.94
2023-04-02T03:53:23.226Z,77.60
2023-04-02T03:54:23.292Z,73.69
2023-04-02T03:55:23.370Z,73.29
2023-04-02T03:56:23.368Z,73.33
2023-04-02T03:57:23.417Z,71.57
2023-04-02T03:58:23.381Z,67.91
2023-04-02T03:59:23.389Z,66.49
2023-04-02T04:00:23.394Z,67.31
2023-04-02T04:01:23.407Z,62.81
2023-04-02T04:02:23.487Z,62.15
2023-04-02T04:03:23.414Z,57.89
2023-04-02T04:04:23.482Z,57.01
2023-04-02T04:05:23.439Z,55.27
2023-04-02T04:06:23.445Z,53.19
2023-04-02T04:07:23.453Z,54.05
2023-04-02T04:08:23.469Z,53.74
2023-04-02T04:09:23.533Z,53.72
2023-04-02T04:10:23.597Z,53.45
2023-04-02T04:11:23.721Z,53.77
2023-04-02T04:12:23.719Z,55.47
2023-04-02T04:13:23.784Z,54.18
2023-04-02T04:14:23.856Z,57.06
2023-04-02T04:15:23.929Z,56.11
2023-04-02T04:16:24.059Z,55.64
2023-04-02T04:17:24.078Z,55.04
2023-04-02T04:18:24.177Z,53.60
2023-04-02T04:19:24.238Z,52.29
2023-04-02T04:20:24.311Z,50.82
2023-04-02T04:21:24.378Z,46.87
2023-04-02T04:22:24.465Z,45.47
2023-04-02T04:23:24.533Z,42.13
2023-04-02T04:24:24.628Z,40.26
2023-04-02T04:25:24.677Z,36.89
2023-04-02T04:26:24.865Z,36.75
2023-04-02T04:27:24.835Z,37.25
2023-04-02T04:28:24.905Z,35.87
2023-04-02T04:29:24.989Z,35.39
2023-04-02T04:30:25.074Z,34.69
2023-04-02T04:31:26.044Z,35.47
2023-04-02T04:32:25.235Z,34.29
2023-04-02T04:33:25.382Z,33.01
2023-04-02T04:34:25.385Z,32.75
2023-04-02T04:35:25.455Z,33.47
2023-04-02T04:36:25.532Z,34.24
2023-04-02T04:37:25.614Z,33.99
2023-04-02T04:38:25.679Z,33.61
2023-04-02T04:39:25.753Z,32.75
2023-04-02T04:40:25.841Z,31.55
2023-04-02T04:41:25.925Z,29.54
2023-04-02T04:42:25.983Z,28.77
2023-04-02T04:43:26.058Z,26.01
2023-04-02T04:44:26.143Z,27.61
2023-04-02T04:45:26.194Z,27.29
2023-04-02T04:46:26.311Z,29.52
2023-04-02T04:47:26.271Z,29.60
2023-04-02T04:48:26.270Z,30.20
2023-04-02T04:49:26.295Z,30.49
2023-04-02T04:50:26.286Z,32.22
2023-04-02T04:51:26.306Z,34.53
2023-04-02T04:52:26.307Z,34.54
2023-04-02T04:53:26.316Z,34.42
2023-04-02T04:54:26.344Z,35.67
2023-04-02T04:55:26.351Z,34.84
2023-04-02T04:56:26.423Z,32.20
2023-04-02T04:57:26.557Z,34.13
2023-04-02T04:58:26.526Z,34.31
2023-04-02T04:59:26.589Z,33.63
2023-04-02T05:00:26.631Z,33.64
2023-04-02T05:01:26.727Z,32.05
2023-04-02T05:02:26.826Z,31.55
2023-04-02T05:03:26.842Z,30.57
2023-04-02T05:04:26.918Z,31.62
2023-04-02T05:05:26.903Z,31.65
2023-04-02T05:06:26.926Z,30.04
2023-04-02T05:07:26.915Z,29.62
2023-04-02T05:08:26.959Z,29.45
2023-04-02T05:09:26.934Z,30.64
2023-04-02T05:10:26.954Z,30.89
2023-04-02T05:11:26.960Z,33.40
2023-04-02T05:12:26.970Z,31.92
2023-04-02T05:13:26.977Z,36.05
2023-04-02T05:14:27.000Z,36.77
2023-04-02T05:15:26.989Z,35.80
2023-04-02T05:16:27.022Z,38.21
2023-04-02T05:17:27.034Z,42.29
2023-04-02T05:18:27.004Z,41.19
2023-04-02T05:19:27.022Z,38.68
2023-04-02T05:20:27.037Z,41.07
2023-04-02T05:21:27.049Z,40.83
2023-04-02T05:22:27.081Z,41.34
2023-04-02T05:23:27.076Z,41.19
2023-04-02T05:24:27.088Z,40.84
2023-04-02T05:25:27.115Z,42.37
2023-04-02T05:26:27.079Z,41.46
2023-04-02T05:27:27.097Z,41.41
2023-04-02T05:28:27.114Z,42.58
2023-04-02T05:29:27.126Z,44.12
2023-04-02T05:30:27.139Z,44.06
2023-04-02T05:31:27.177Z,44.62
2023-04-02T05:32:27.174Z,44.29
2023-04-02T05:33:27.190Z,46.79
2023-04-02T05:34:27.182Z,45.99
2023-04-02T05:35:27.180Z,46.88
2023-04-02T05:36:27.225Z,49.38
2023-04-02T05:37:27.218Z,49.82
2023-04-02T05:38:27.217Z,50.68
2023-04-02T05:39:27.227Z,51.84
2023-04-02T05:40:27.236Z,51.97
2023-04-02T05:41:27.263Z,54.11
2023-04-02T05:42:27.273Z,52.58
2023-04-02T05:43:27.260Z,56.40
2023-04-02T05:44:27.288Z,59.71
2023-04-02T05:45:27.278Z,58.38
2023-04-02T05:46:27.376Z,58.93
2023-04-02T05:47:27.351Z,63.36
2023-04-02T05:48:27.321Z,65.40
2023-04-02T05:49:27.322Z,65.43
2023-04-02T05:50:27.335Z,65.65
2023-04-02T05:51:27.355Z,66.11
2023-04-02T05:52:27.377Z,66.68
2023-04-02T05:53:27.383Z,70.09
2023-04-02T05:54:27.367Z,73.62
2023-04-02T05:55:27.364Z,71.10
2023-04-02T05:56:27.387Z,72.62
2023-04-02T05:57:39.867Z,73.64
2023-04-02T05:59:27.488Z,74.17
2023-04-02T06:00:27.514Z,74.38
2023-04-02T06:01:27.522Z,75.03
2023-04-02T06:02:27.643Z,77.04
2023-04-02T06:03:27.692Z,76.47
2023-04-02T06:04:27.560Z,76.82
2023-04-02T06:05:27.574Z,76.64
2023-04-02T06:06:27.594Z,78.65
2023-04-02T06:07:27.625Z,79.92
2023-04-02T06:08:27.625Z,78.35
2023-04-02T06:09:27.705Z,80.84
2023-04-02T06:10:27.695Z,80.80
2023-04-02T06:11:27.698Z,79.44
2023-04-02T06:12:27.732Z,78.62
2023-04-02T06:13:27.739Z,76.46
2023-04-02T06:14:27.802Z,73.31
2023-04-02T06:15:27.797Z,69.83
2023-04-02T06:16:27.847Z,66.63
2023-04-02T06:17:28.001Z,66.86
2023-04-02T06:18:27.977Z,67.15
2023-04-02T06:19:27.971Z,68.64
2023-04-02T06:20:27.907Z,71.94
2023-04-02T06:21:27.978Z,81.33
2023-04-02T06:22:28.009Z,92.63
2023-04-02T06:23:28.002Z,98.80
2023-04-02T06:24:27.951Z,101.48
2023-04-02T06:25:28.001Z,103.55
2023-04-02T06:26:28.054Z,104.50
2023-04-02T06:27:28.033Z,105.34
2023-04-02T06:28:28.053Z,105.79
2023-04-02T06:29:28.078Z,104.82
2023-04-02T06:30:28.073Z,103.60
2023-04-02T06:31:28.021Z,102.90
2023-04-02T06:32:28.108Z,96.80
2023-04-02T06:33:28.093Z,99.25
2023-04-02T06:34:28.011Z,98.07
2023-04-02T06:35:28.161Z,94.71
2023-04-02T06:36:28.095Z,93.40
2023-04-02T06:37:28.149Z,93.97
2023-04-02T06:38:28.153Z,92.37
2023-04-02T06:39:28.239Z,94.44
2023-04-02T06:40:28.262Z,95.20
2023-04-02T06:41:28.293Z,95.93
2023-04-02T06:42:28.368Z,94.18
2023-04-02T06:43:28.411Z,94.67
2023-04-02T06:44:28.430Z,95.71
2023-04-02T06:45:28.533Z,97.18
2023-04-02T06:46:28.595Z,98.22
2023-04-02T06:47:28.613Z,99.54
2023-04-02T06:48:28.649Z,100.92
2023-04-02T06:49:28.686Z,102.86
2023-04-02T06:50:28.727Z,103.87
2023-04-02T06:51:28.756Z,102.22
2023-04-02T06:52:28.758Z,101.23
2023-04-02T06:53:28.776Z,101.27
2023-04-02T06:54:28.809Z,98.35
2023-04-02T06:55:28.871Z,99.52
2023-04-02T06:56:28.849Z,96.23
2023-04-02T06:57:28.907Z,97.46
2023-04-02T06:58:28.913Z,95.61
2023-04-02T06:59:28.907Z,95.63
2023-04-02T07:00:28.923Z,91.80
2023-04-02T07:01:29.027Z,87.97
2023-04-02T07:02:29.089Z,87.57
2023-04-02T07:03:29.053Z,85.32
2023-04-02T07:04:29.150Z,83.60
2023-04-02T07:05:29.199Z,78.51
2023-04-02T07:06:29.295Z,78.97
2023-04-02T07:07:29.360Z,71.45
2023-04-02T07:08:29.464Z,64.61
2023-04-02T07:09:29.495Z,58.92
2023-04-02T07:10:29.588Z,54.29
2023-04-02T07:11:29.643Z,52.38
2023-04-02T07:12:29.749Z,46.40
2023-04-02T07:13:29.810Z,41.44
2023-04-02T07:14:29.880Z,34.84
2023-04-02T07:15:29.951Z,30.84
2023-04-02T07:16:30.072Z,26.66
2023-04-02T07:17:30.155Z,26.97
2023-04-02T07:18:30.177Z,25.00
2023-04-02T07:19:30.228Z,25.75
2023-04-02T07:20:30.311Z,25.00
2023-04-02T07:21:30.384Z,24.77
2023-04-02T07:22:30.387Z,24.77
2023-04-02T07:23:30.387Z,20.37
2023-04-02T07:24:30.399Z,19.39
2023-04-02T07:25:30.411Z,13.85
2023-04-02T07:26:30.418Z,11.20
2023-04-02T07:27:30.422Z,23.35
2023-04-02T07:28:30.440Z,24.86
2023-04-02T07:29:30.437Z,25.00
2023-04-02T07:30:30.438Z,25.00
2023-04-02T07:31:30.618Z,25.00
2023-04-02T07:32:30.655Z,25.00
2023-04-02T07:33:30.698Z,25.00
2023-04-02T07:34:30.718Z,25.00
2023-04-02T07:35:30.771Z,25.00
2023-04-02T07:36:30.843Z,25.94
2023-04-02T07:37:30.898Z,26.82
2023-04-02T07:38:30.976Z,25.53
2023-04-02T07:39:31.034Z,25.00
2023-04-02T07:40:31.089Z,25.07
2023-04-02T07:41:31.157Z,25.47
2023-04-02T07:42:31.168Z,24.30
2023-04-02T07:43:31.160Z,20.58
2023-04-02T07:44:31.166Z,17.24
2023-04-02T07:45:31.156Z,9.97
2023-04-02T07:46:31.216Z,4.97
2023-04-02T07:47:31.230Z,12.87
2023-04-02T07:48:31.169Z,21.28
2023-04-02T07:49:31.182Z,18.17
2023-04-02T07:50:31.173Z,14.73
2023-04-02T07:51:31.173Z,10.85
2023-04-02T07:52:31.175Z,9.42
2023-04-02T07:53:31.192Z,7.32
2023-04-02T07:54:31.187Z,14.16
2023-04-02T07:55:31.187Z,21.04
2023-04-02T07:56:31.188Z,25.00
2023-04-02T07:57:31.308Z,21.86
2023-04-02T07:58:31.267Z,13.69
2023-04-02T07:59:31.192Z,8.34
2023-04-02T08:00:31.198Z,4.66
2023-04-02T08:01:31.202Z,1.53
2023-04-02T08:02:31.316Z,10.56
2023-04-02T08:03:31.372Z,14.61
2023-04-02T08:04:31.224Z,20.90
2023-04-02T08:05:31.226Z,25.00
2023-04-02T08:06:31.231Z,25.47
2023-04-02T08:07:31.256Z,25.00
2023-04-02T08:08:31.243Z,22.88
2023-04-02T08:09:31.257Z,20.55
2023-04-02T08:10:31.256Z,17.69
2023-04-02T08:11:32.027Z,16.20
2023-04-02T08:12:31.287Z,13.25
2023-04-02T08:13:31.284Z,20.05
2023-04-02T08:14:31.273Z,25.00
2023-04-02T08:15:31.268Z,25.02
2023-04-02T08:16:31.286Z,25.00
2023-04-02T08:17:31.371Z,23.98
2023-04-02T08:18:31.292Z,23.38
2023-04-02T08:19:32.675Z,21.76
2023-04-02T08:20:31.287Z,20.36
2023-04-02T08:21:31.275Z,19.88
2023-04-02T08:22:31.273Z,25.00
2023-04-02T08:23:31.296Z,25.07
2023-04-02T08:24:31.327Z,27.30
2023-04-02T08:25:31.357Z,29.96
2023-04-02T08:26:31.388Z,26.94
2023-04-02T08:27:31.408Z,25.00
2023-04-02T08:28:31.435Z,25.46
2023-04-02T08:29:31.449Z,25.00
2023-04-02T08:30:31.551Z,25.23
2023-04-02T08:31:31.488Z,25.42
2023-04-02T08:32:31.539Z,25.08
2023-04-02T08:33:31.532Z,26.12
2023-04-02T08:34:31.552Z,25.78
2023-04-02T08:35:31.593Z,25.00
2023-04-02T08:36:31.599Z,25.00
2023-04-02T08:37:31.626Z,25.00
2023-04-02T08:38:31.630Z,25.00
2023-04-02T08:39:31.672Z,25.09
2023-04-02T08:40:31.667Z,25.00
2023-04-02T08:41:31.669Z,25.06
2023-04-02T08:42:31.683Z,25.00
2023-04-02T08:43:31.707Z,25.80
2023-04-02T08:44:31.705Z,26.14
2023-04-02T08:45:31.717Z,26.73
2023-04-02T08:46:31.922Z,25.25
2023-04-02T08:47:31.794Z,25.00
2023-04-02T08:48:31.765Z,24.83
2023-04-02T08:49:31.764Z,25.03
2023-04-02T08:50:31.754Z,25.31
2023-04-02T08:51:31.747Z,24.89
2023-04-02T08:52:31.754Z,25.20
2023-04-02T08:53:31.750Z,25.78
2023-04-02T08:54:31.765Z,25.29
2023-04-02T08:55:31.773Z,26.04
2023-04-02T08:56:31.782Z,25.04
2023-04-02T08:57:31.878Z,25.51
2023-04-02T08:58:31.768Z,25.18
2023-04-02T08:59:31.814Z,26.87
2023-04-02T09:00:31.790Z,29.82
2023-04-02T09:01:31.845Z,34.65
2023-04-02T09:02:31.986Z,39.77
2023-04-02T09:03:31.802Z,44.37
2023-04-02T09:04:31.854Z,47.81
2023-04-02T09:05:31.829Z,53.53
2023-04-02T09:06:31.828Z,58.51
2023-04-02T09:07:31.824Z,64.49
2023-04-02T09:08:31.835Z,72.47
2023-04-02T09:09:31.845Z,79.38
2023-04-02T09:10:31.911Z,83.75
2023-04-02T09:11:31.981Z,87.29
2023-04-02T09:12:32.064Z,91.83
2023-04-02T09:13:32.092Z,98.87
2023-04-02T09:14:32.156Z,104.21
2023-04-02T09:15:32.180Z,107.17
2023-04-02T09:16:32.258Z,113.02
2023-04-02T09:17:42.686Z,116.95
2023-04-02T09:18:33.288Z,117.09
2023-04-02T09:19:32.274Z,118.14
2023-04-02T09:20:32.258Z,121.08
2023-04-02T09:21:32.261Z,126.16
2023-04-02T09:22:32.258Z,134.36
2023-04-02T09:23:32.259Z,138.41
2023-04-02T09:24:32.271Z,141.84
2023-04-02T09:25:32.377Z,144.83
2023-04-02T09:26:32.279Z,148.08
2023-04-02T09:27:32.289Z,151.04
2023-04-02T09:28:32.262Z,153.34
2023-04-02T09:29:32.267Z,157.05
2023-04-02T09:30:32.281Z,157.14
2023-04-02T09:31:32.307Z,157.68
2023-04-02T09:32:32.271Z,159.07
2023-04-02T09:33:32.268Z,162.57
2023-04-02T09:34:32.306Z,167.38
2023-04-02T09:35:32.292Z,170.57
2023-04-02T09:36:32.337Z,172.20
2023-04-02T09:37:32.281Z,173.92
2023-04-02T09:38:32.280Z,176.33
2023-04-02T09:39:32.295Z,176.39
2023-04-02T09:40:32.285Z,176.85
2023-04-02T09:41:32.298Z,178.25
2023-04-02T09:42:32.283Z,180.91
2023-04-02T09:43:32.302Z,185.04
2023-04-02T09:44:32.301Z,187.19
2023-04-02T09:45:32.293Z,188.57
2023-04-02T09:46:32.325Z,188.69
2023-04-02T09:47:32.297Z,188.98
2023-04-02T09:48:32.280Z,190.05
2023-04-02T09:49:32.283Z,192.28
2023-04-02T09:50:32.268Z,195.73
2023-04-02T09:51:32.278Z,196.75
2023-04-02T09:52:32.268Z,197.41
2023-04-02T09:53:32.266Z,199.02
2023-04-02T09:54:32.264Z,200.00
2023-04-02T09:55:32.246Z,200.89
2023-04-02T09:56:32.290Z,201.51
2023-04-02T09:57:32.372Z,202.98
2023-04-02T09:58:32.345Z,204.18
2023-04-02T09:59:32.375Z,205.54
2023-04-02T10:00:41.663Z,206.55
2023-04-02T10:01:33.425Z,206.67
2023-04-02T10:02:32.407Z,207.04
2023-04-02T10:03:32.386Z,207.92
2023-04-02T10:04:32.397Z,209.74
2023-04-02T10:05:40.580Z,212.59
2023-04-02T10:06:33.377Z,206.83
2023-04-02T10:07:32.385Z,207.81
2023-04-02T10:08:32.371Z,209.50
2023-04-02T10:09:32.409Z,212.37
2023-04-02T10:10:32.373Z,216.20
2023-04-02T10:11:43.808Z,217.55
2023-04-02T10:12:33.382Z,217.61
2023-04-02T10:13:32.383Z,217.85
2023-04-02T10:14:32.390Z,218.50
2023-04-02T10:15:32.388Z,219.31
2023-04-02T10:16:32.463Z,221.04
2023-04-02T10:17:32.434Z,222.25
2023-04-02T10:18:32.371Z,221.89
2023-04-02T10:19:32.385Z,222.60
2023-04-02T10:20:36.354Z,223.15
2023-04-02T10:21:33.401Z,223.21
2023-04-02T10:22:32.360Z,223.33
2023-04-02T10:23:32.356Z,223.82
2023-04-02T10:24:32.358Z,224.78
2023-04-02T10:25:32.354Z,226.67
2023-04-02T10:26:32.343Z,226.42
2023-04-02T10:27:32.335Z,227.61
2023-04-02T10:28:32.330Z,228.29
2023-04-02T10:29:32.318Z,228.10
2023-04-02T10:30:32.642Z,228.80
2023-04-02T10:31:32.311Z,229.01
2023-04-02T10:32:32.361Z,229.13
2023-04-02T10:33:32.333Z,230.90
2023-04-02T10:34:32.302Z,231.07
2023-04-02T10:35:32.337Z,230.72
2023-04-02T10:36:32.281Z,231.24
2023-04-02T10:37:32.278Z,232.40
2023-04-02T10:38:32.270Z,232.63
2023-04-02T10:39:32.277Z,233.11
2023-04-02T10:40:32.276Z,233.16
2023-04-02T10:41:32.248Z,233.39
2023-04-02T10:42:32.237Z,233.44
2023-04-02T10:43:32.221Z,233.70
2023-04-02T10:44:32.221Z,234.04
2023-04-02T10:45:32.215Z,234.36
2023-04-02T10:46:32.253Z,234.82
2023-04-02T10:47:32.227Z,234.42
2023-04-02T10:48:32.194Z,233.92
2023-04-02T10:49:32.278Z,234.81
2023-04-02T10:50:32.170Z,234.96
2023-04-02T10:51:32.162Z,234.94
2023-04-02T10:52:32.154Z,235.60
2023-04-02T10:53:32.155Z,236.22
2023-04-02T10:54:32.132Z,234.82
2023-04-02T10:55:32.132Z,234.91
2023-04-02T10:56:44.122Z,235.10
2023-04-02T10:57:33.203Z,234.95
2023-04-02T10:58:32.096Z,235.20
2023-04-02T10:59:32.106Z,235.88
2023-04-02T11:00:32.105Z,236.60
2023-04-02T11:01:32.100Z,238.01
2023-04-02T11:02:32.204Z,237.57
2023-04-02T11:03:32.128Z,237.89
2023-04-02T11:04:32.084Z,237.85
2023-04-02T11:05:32.055Z,239.00
2023-04-02T11:06:32.039Z,238.19
2023-04-02T11:07:32.038Z,238.28
2023-04-02T11:08:32.029Z,237.99
2023-04-02T11:09:32.031Z,239.10
2023-04-02T11:10:32.023Z,238.91
2023-04-02T11:11:32.028Z,239.30
2023-04-02T11:12:31.997Z,238.82
2023-04-02T11:13:31.990Z,239.58
2023-04-02T11:14:31.986Z,239.58
2023-04-02T11:15:31.984Z,239.55
2023-04-02T11:16:32.049Z,239.68
2023-04-02T11:17:31.967Z,239.08
2023-04-02T11:18:31.956Z,239.12
2023-04-02T11:19:31.938Z,239.21
2023-04-02T11:20:31.946Z,239.27
2023-04-02T11:21:31.932Z,239.64
2023-04-02T11:22:31.934Z,240.01
2023-04-02T11:23:31.929Z,240.42
2023-04-02T11:24:31.926Z,240.26
2023-04-02T11:25:31.933Z,240.60
2023-04-02T11:26:31.920Z,241.10
2023-04-02T11:27:31.939Z,241.21
2023-04-02T11:28:31.925Z,241.18
2023-04-02T11:29:31.911Z,241.02
2023-04-02T11:30:31.910Z,241.55
2023-04-02T11:31:31.955Z,241.96
2023-04-02T11:32:31.919Z,241.72
2023-04-02T11:33:38.345Z,241.86
2023-04-02T11:34:32.887Z,241.88
2023-04-02T11:35:31.952Z,242.04
2023-04-02T11:36:31.873Z,242.13
2023-04-02T11:37:31.861Z,241.97
2023-04-02T11:38:31.856Z,242.06
2023-04-02T11:39:31.844Z,242.13
2023-04-02T11:40:31.845Z,242.62
2023-04-02T11:41:31.825Z,242.92
2023-04-02T11:42:31.826Z,242.42
2023-04-02T11:43:31.814Z,242.88
2023-04-02T11:44:31.817Z,243.69
2023-04-02T11:45:35.526Z,243.08
2023-04-02T11:46:32.849Z,243.17
2023-04-02T11:47:31.830Z,243.36
2023-04-02T11:48:31.810Z,243.59
2023-04-02T11:49:31.800Z,243.98
2023-04-02T11:50:31.793Z,244.11
2023-04-02T11:51:31.799Z,244.74
2023-04-02T11:52:31.800Z,244.38
2023-04-02T11:53:31.799Z,244.43
2023-04-02T11:54:31.782Z,244.46
2023-04-02T11:55:31.788Z,244.95
2023-04-02T11:56:31.788Z,244.82
2023-04-02T11:57:31.855Z,245.18
2023-04-02T11:58:31.766Z,245.60
2023-04-02T11:59:31.765Z,245.66
2023-04-02T12:00:31.756Z,245.73
2023-04-02T12:01:31.788Z,245.69
2023-04-02T12:02:31.875Z,245.70
2023-04-02T12:03:31.763Z,245.97
2023-04-02T12:04:31.751Z,245.68
2023-04-02T12:05:31.795Z,245.77
2023-04-02T12:06:31.750Z,245.65
2023-04-02T12:07:31.729Z,245.66
2023-04-02T12:08:31.732Z,245.77
2023-04-02T12:09:31.740Z,245.51
2023-04-02T12:10:31.775Z,246.16
2023-04-02T12:11:31.743Z,245.75
2023-04-02T12:12:31.735Z,245.62
2023-04-02T12:13:31.736Z,246.16
2023-04-02T12:14:31.724Z,245.63
2023-04-02T12:15:31.723Z,246.09
2023-04-02T12:16:31.741Z,245.92
2023-04-02T12:17:31.755Z,246.21
2023-04-02T12:18:31.694Z,246.05
2023-04-02T12:19:31.703Z,246.51
2023-04-02T12:20:31.701Z,245.73
2023-04-02T12:21:31.704Z,246.37
2023-04-02T12:22:31.687Z,246.46
2023-04-02T12:23:31.724Z,246.77
2023-04-02T12:24:31.682Z,246.95
2023-04-02T12:25:31.747Z,246.23
2023-04-02T12:26:31.667Z,246.74
2023-04-02T12:27:31.658Z,246.45
2023-04-02T12:28:31.662Z,246.60
2023-04-02T12:29:31.667Z,247.11
2023-04-02T12:30:31.646Z,247.17
2023-04-02T12:31:31.688Z,247.22
2023-04-02T12:32:31.673Z,247.22
2023-04-02T12:33:31.631Z,247.24
2023-04-02T12:34:31.622Z,247.29
2023-04-02T12:35:31.662Z,247.27
2023-04-02T12:36:31.622Z,247.36
2023-04-02T12:37:31.628Z,247.55
2023-04-02T12:38:31.611Z,247.60
2023-04-02T12:39:31.616Z,248.03